Time;durP1;ratioP1;P1;durP2;ratioP2;P2;SDS_P1;SDS_P2;PMS_P1;PMS_P2;Temp;Humidity;BMP_temperature;BMP_pressure;BME280_temperature;BME280_humidity;BME280_pressure;Samples;Min_cycle;Max_cycle;Signal;HPM_P1;HPM_P2
2022/08/16 00:00:33;;;;;;;12.13;9.60;;;;;;;22.04;65.35;99971.30;1662442;84;21543;-81
2022/08/16 00:03:17;;;;;;;10.75;9.63;;;;;;;22.03;65.40;99978.00;1659321;84;20931;-81
2022/08/16 00:06:03;;;;;;;10.75;9.33;;;;;;;22.03;65.57;99980.16;1636989;85;20979;-82
2022/08/16 00:08:48;;;;;;;9.28;8.53;;;;;;;22.04;65.67;99969.15;1638879;85;21396;-82
2022/08/16 00:11:33;;;;;;;12.00;10.13;;;;;;;22.02;65.64;99976.32;1653669;84;20977;-82
2022/08/16 00:14:23;;;;;;;10.18;9.20;;;;;;;21.99;65.71;99972.09;1647484;84;20998;-82
2022/08/16 00:17:08;;;;;;;11.05;9.00;;;;;;;21.99;65.83;99964.67;1656849;86;21450;-82
2022/08/16 00:19:54;;;;;;;11.90;10.70;;;;;;;21.96;65.87;99963.58;1658260;85;20969;-82
2022/08/16 00:22:41;;;;;;;9.33;8.53;;;;;;;21.93;66.02;99967.27;1661777;86;21427;-82
2022/08/16 00:25:27;;;;;;;10.05;9.15;;;;;;;21.91;66.06;99963.91;1637630;85;20927;-82
2022/08/16 00:28:11;;;;;;;9.13;8.33;;;;;;;21.87;66.04;99962.45;1662444;85;20935;-82
2022/08/16 00:30:56;;;;;;;8.23;7.42;;;;;;;21.80;66.10;99965.20;1652566;84;20936;-82
2022/08/16 00:33:41;;;;;;;7.12;6.55;;;;;;;21.74;66.15;99971.75;1674293;85;21466;-82
2022/08/16 00:36:26;;;;;;;8.93;7.92;;;;;;;21.69;66.30;99967.77;1675039;84;20950;-82
2022/08/16 00:39:12;;;;;;;8.48;7.78;;;;;;;21.63;66.38;99971.68;1654596;85;20894;-82
2022/08/16 00:41:57;;;;;;;7.53;6.83;;;;;;;21.60;66.43;99973.22;1665347;84;21079;-82
2022/08/16 00:44:48;;;;;;;7.28;6.67;;;;;;;21.56;66.50;99969.59;1655272;85;20961;-82
2022/08/16 00:47:35;;;;;;;9.05;8.35;;;;;;;21.52;66.59;99965.50;1684925;84;20926;-81
2022/08/16 00:50:24;;;;;;;12.03;8.33;;;;;;;21.56;66.69;99970.91;1660346;84;20941;-81
2022/08/16 00:53:13;;;;;;;10.15;9.28;;;;;;;21.53;66.63;99974.61;1677736;84;20946;-81
2022/08/16 00:56:03;;;;;;;11.43;9.63;;;;;;;21.54;66.81;99970.19;1660766;84;21447;-81
2022/08/16 00:58:48;;;;;;;9.75;8.95;;;;;;;21.52;66.82;99970.30;1662744;84;20937;-81
2022/08/16 01:01:33;;;;;;;10.28;9.25;;;;;;;21.50;66.87;99967.41;1695991;84;20954;-81
2022/08/16 01:04:22;;;;;;;9.08;8.15;;;;;;;21.44;66.82;99969.52;1686883;84;21458;-81
2022/08/16 01:07:07;;;;;;;9.05;6.42;;;;;;;21.36;66.89;99978.91;1661103;84;20938;-81
2022/08/16 01:09:51;;;;;;;8.28;7.45;;;;;;;21.30;67.01;99985.47;1661277;84;20974;-82
2022/08/16 01:12:36;;;;;;;6.87;6.30;;;;;;;21.25;66.98;99982.32;1647764;85;20969;-82
2022/08/16 01:15:21;;;;;;;8.58;7.87;;;;;;;21.23;67.17;99979.44;1689874;84;20938;-82
2022/08/16 01:18:09;;;;;;;8.18;7.40;;;;;;;21.23;67.16;99978.12;1681294;84;21431;-82
2022/08/16 01:20:59;;;;;;;7.87;7.28;;;;;;;21.22;67.27;99979.06;1647418;87;20929;-82
2022/08/16 01:24:26;;;;;;;9.25;8.13;;;;;;;21.20;67.24;99975.67;1698782;84;21522;-82
2022/08/16 01:27:18;;;;;;;12.15;7.35;;;;;;;21.18;67.29;99984.14;1656757;84;20933;-82
2022/08/16 01:30:11;;;;;;;7.45;6.85;;;;;;;21.11;67.42;99991.61;1648319;85;21780;-82
2022/08/16 01:33:01;;;;;;;7.58;6.22;;;;;;;21.13;67.52;99989.72;1656833;84;20942;-82
2022/08/16 01:35:58;;;;;;;9.10;7.15;;;;;;;21.09;67.46;99998.77;1661740;84;21481;-82
2022/08/16 01:38:47;;;;;;;11.78;6.97;;;;;;;21.04;67.52;99985.94;1673906;84;21057;-82
2022/08/16 01:41:32;;;;;;;6.70;6.25;;;;;;;21.06;67.63;99987.15;1679419;84;21009;-82
2022/08/16 01:44:17;;;;;;;8.30;7.53;;;;;;;21.04;67.61;99987.72;1671216;84;21031;-81
2022/08/16 01:47:04;;;;;;;9.53;7.95;;;;;;;20.97;67.58;99988.63;1659873;84;21072;-81
2022/08/16 01:49:50;;;;;;;9.45;8.30;;;;;;;20.91;67.68;99994.77;1672247;85;21116;-81
2022/08/16 01:52:35;;;;;;;8.58;7.92;;;;;;;20.90;67.83;99982.10;1671228;84;21109;-81
2022/08/16 01:55:22;;;;;;;8.33;7.53;;;;;;;20.89;67.83;99983.05;1661468;84;21072;-81
2022/08/16 01:58:08;;;;;;;17.15;11.12;;;;;;;20.93;67.92;99983.68;1648870;85;21124;-81
2022/08/16 02:00:53;;;;;;;9.85;9.05;;;;;;;20.91;67.95;99983.78;1646637;83;21092;-81
2022/08/16 02:03:40;;;;;;;11.00;9.95;;;;;;;20.89;68.00;99986.16;1628068;86;21072;-81
2022/08/16 02:06:27;;;;;;;13.53;11.60;;;;;;;20.87;68.03;99990.67;1671728;84;21044;-81
2022/08/16 02:09:13;;;;;;;11.40;9.95;;;;;;;20.88;68.19;99986.63;1672252;84;21120;-81
2022/08/16 02:12:00;;;;;;;11.90;10.03;;;;;;;20.88;68.20;99994.51;1645934;84;21566;-81
2022/08/16 02:14:45;;;;;;;12.43;10.98;;;;;;;20.88;68.27;100000.23;1663279;84;21100;-82
2022/08/16 02:17:30;;;;;;;13.13;11.90;;;;;;;20.89;68.32;99996.66;1609368;86;21125;-82
2022/08/16 02:20:18;;;;;;;14.43;12.10;;;;;;;20.88;68.35;99995.83;1623758;87;21116;-81
2022/08/16 02:23:05;;;;;;;13.48;12.18;;;;;;;20.86;68.36;99992.93;1648445;86;21025;-81
2022/08/16 02:25:49;;;;;;;14.53;13.10;;;;;;;20.86;68.54;99988.98;1657457;86;21466;-81
2022/08/16 02:28:36;;;;;;;12.95;11.75;;;;;;;20.89;68.57;100002.77;1629801;87;22217;-82
2022/08/16 02:31:21;;;;;;;;;;;;;;;20.87;68.50;99999.87;1665871;84;21116;-82
2022/08/16 02:34:07;;;;;;;12.35;11.08;;;;;;;20.79;68.99;99993.85;1700673;84;20177;-82
2022/08/16 02:36:51;;;;;;;12.30;11.20;;;;;;;20.76;68.68;99998.00;1640524;86;21095;-82
2022/08/16 02:39:37;;;;;;;12.73;11.57;;;;;;;20.78;68.84;99998.27;1651281;86;21132;-82
2022/08/16 02:42:22;;;;;;;13.53;12.25;;;;;;;20.78;68.80;99996.95;1637700;86;21121;-82
2022/08/16 02:45:08;;;;;;;12.63;11.53;;;;;;;20.79;68.80;99999.11;1613481;86;21071;-81
2022/08/16 02:47:54;;;;;;;13.62;12.20;;;;;;;20.74;68.79;99988.91;1669857;85;21040;-82
2022/08/16 02:50:39;;;;;;;13.38;11.05;;;;;;;20.72;68.90;99985.55;1685279;84;21110;-82
2022/08/16 02:53:24;;;;;;;9.75;8.85;;;;;;;20.69;68.91;99988.85;1671577;84;21588;-81
2022/08/16 02:56:11;;;;;;;10.30;9.23;;;;;;;20.66;68.99;99981.17;1672663;85;21532;-81
2022/08/16 02:58:56;;;;;;;10.45;9.45;;;;;;;20.66;69.01;99990.38;1653898;84;20992;-81
2022/08/16 03:01:41;;;;;;;13.10;11.67;;;;;;;20.62;68.99;99991.05;1652337;84;21068;-81
2022/08/16 03:04:27;;;;;;;12.25;11.12;;;;;;;20.60;69.20;99994.72;1684423;84;21081;-82
2022/08/16 03:07:13;;;;;;;12.55;11.35;;;;;;;20.62;69.19;99992.84;1682341;84;21076;-82
2022/08/16 03:09:58;;;;;;;11.45;10.50;;;;;;;20.57;69.17;99989.20;1619570;86;21535;-82
2022/08/16 03:12:44;;;;;;;10.25;9.30;;;;;;;20.56;69.28;99991.94;1676656;83;21141;-82
2022/08/16 03:15:30;;;;;;;10.63;9.73;;;;;;;20.56;69.25;99990.14;1677275;84;21162;-82
2022/08/16 03:18:16;;;;;;;11.95;10.95;;;;;;;20.52;69.23;99996.55;1662974;84;21025;-82
2022/08/16 03:21:01;;;;;;;12.90;9.10;;;;;;;20.45;69.30;99997.91;1673644;84;21045;-82
2022/08/16 03:23:46;;;;;;;12.70;11.43;;;;;;;20.48;69.46;99997.70;1662369;84;21528;-82
2022/08/16 03:26:31;;;;;;;11.25;10.05;;;;;;;20.47;69.37;99996.02;1684525;84;21020;-82
2022/08/16 03:29:16;;;;;;;13.15;10.20;;;;;;;20.43;69.40;99995.84;1688066;83;21569;-82
2022/08/16 03:32:02;;;;;;;10.85;9.93;;;;;;;20.37;69.41;99998.84;1630441;85;21136;-82
2022/08/16 03:34:47;;;;;;;10.95;10.08;;;;;;;20.35;69.53;99994.17;1688900;83;21053;-82
2022/08/16 03:37:34;;;;;;;10.20;9.18;;;;;;;20.33;69.54;100003.93;1609575;86;21136;-82
2022/08/16 03:40:19;;;;;;;10.18;9.28;;;;;;;20.32;69.56;100006.19;1705188;83;20977;-82
2022/08/16 03:43:06;;;;;;;12.43;11.33;;;;;;;20.32;69.59;100008.81;1690567;83;20929;-82
2022/08/16 03:45:54;;;;;;;13.30;11.60;;;;;;;20.35;69.72;100012.08;1687097;83;20974;-82
2022/08/16 03:48:40;;;;;;;12.30;11.20;;;;;;;20.37;69.77;100015.45;1644841;85;20976;-82
2022/08/16 03:51:25;;;;;;;12.00;10.85;;;;;;;20.41;69.74;100016.96;1641145;85;20957;-82
2022/08/16 03:54:10;;;;;;;12.43;9.80;;;;;;;20.40;69.80;100019.22;1669965;85;21000;-82
2022/08/16 03:56:55;;;;;;;10.40;9.35;;;;;;;20.40;69.72;100026.25;1688276;83;20917;-82
2022/08/16 03:59:39;;;;;;;10.95;9.40;;;;;;;20.31;69.66;100028.14;1677069;83;20933;-82
2022/08/16 04:02:25;;;;;;;11.22;10.30;;;;;;;20.24;69.83;100025.57;1615655;86;21124;-82
2022/08/16 04:05:13;;;;;;;11.70;10.63;;;;;;;20.25;69.91;100029.41;1666803;85;21528;-82
2022/08/16 04:07:58;;;;;;;11.40;10.05;;;;;;;20.25;69.88;100025.94;1693522;82;21081;-82
2022/08/16 04:10:44;;;;;;;10.88;9.88;;;;;;;20.24;69.91;100035.60;1637789;86;21112;-82
2022/08/16 04:13:29;;;;;;;10.75;9.83;;;;;;;20.19;69.91;100039.00;1687772;83;21567;-81
2022/08/16 04:16:16;;;;;;;10.58;8.55;;;;;;;20.19;70.00;100048.19;1688862;83;21122;-81
2022/08/16 04:19:03;;;;;;;9.88;8.88;;;;;;;20.18;69.98;100054.84;1660028;83;21112;-81
2022/08/16 04:21:47;;;;;;;10.13;9.33;;;;;;;20.17;70.06;100060.56;1680680;83;21096;-81
2022/08/16 04:24:33;;;;;;;9.35;8.50;;;;;;;20.18;70.06;100064.88;1696101;83;21136;-81
2022/08/16 04:27:19;;;;;;;15.30;13.10;;;;;;;20.17;70.08;100075.01;1660767;83;21056;-81
2022/08/16 04:30:10;;;;;;;12.50;11.15;;;;;;;20.16;70.21;100079.41;1654329;86;21113;-81
2022/08/16 04:32:55;;;;;;;10.13;9.23;;;;;;;20.21;70.25;100084.84;1674232;83;21119;-81
2022/08/16 04:35:40;;;;;;;12.73;11.63;;;;;;;20.28;70.28;100092.66;1640489;86;21061;-81
2022/08/16 04:38:26;;;;;;;14.95;11.63;;;;;;;20.30;70.31;100085.06;1646984;86;21114;-81
2022/08/16 04:41:11;;;;;;;12.07;10.95;;;;;;;20.37;70.37;100089.45;1674300;83;21057;-81
2022/08/16 04:43:57;;;;;;;17.20;14.40;;;;;;;20.43;70.38;100093.86;1623891;86;21689;-81
2022/08/16 04:46:42;;;;;;;15.45;13.88;;;;;;;20.44;70.39;100090.77;1628301;86;21071;-82
2022/08/16 04:49:27;;;;;;;14.07;12.65;;;;;;;20.46;70.48;100096.29;1692381;83;21319;-82
2022/08/16 04:52:12;;;;;;;17.20;14.03;;;;;;;20.52;70.55;100095.52;1659422;85;21587;-82
2022/08/16 04:54:57;;;;;;;14.83;13.40;;;;;;;20.60;70.63;100103.27;1692992;83;20973;-81
2022/08/16 04:57:44;;;;;;;15.18;13.78;;;;;;;20.67;70.62;100097.98;1683703;83;21068;-81
2022/08/16 05:00:35;;;;;;;15.83;14.35;;;;;;;20.74;70.68;100105.84;1654612;86;21116;-81
2022/08/16 05:03:20;;;;;;;14.55;13.05;;;;;;;20.81;70.67;100104.93;1676997;83;21004;-81
2022/08/16 05:06:06;;;;;;;16.93;13.98;;;;;;;20.87;70.74;100108.47;1661726;83;21112;-81
2022/08/16 05:08:51;;;;;;;15.40;13.95;;;;;;;20.95;70.81;100108.80;1677204;83;21119;-81
2022/08/16 05:11:37;;;;;;;16.45;14.15;;;;;;;21.04;70.87;100116.06;1680548;83;21072;-81
2022/08/16 05:14:22;;;;;;;;;;;;;;;21.17;70.89;100117.40;1644771;86;21076;-81
2022/08/16 05:17:08;;;;;;;17.45;15.83;;;;;;;21.22;71.27;100113.17;1621085;86;20248;-82
2022/08/16 05:19:53;;;;;;;16.75;14.47;;;;;;;21.32;70.99;100123.41;1623943;86;22321;-82
2022/08/16 05:22:39;;;;;;;14.93;13.53;;;;;;;21.44;71.00;100126.52;1696671;83;21112;-81
2022/08/16 05:25:24;;;;;;;16.37;14.38;;;;;;;21.63;71.13;100124.77;1674899;85;21358;-81
2022/08/16 05:28:10;;;;;;;15.20;13.80;;;;;;;21.93;71.15;100126.55;1641339;85;21087;-80
2022/08/16 05:30:55;;;;;;;16.82;15.23;;;;;;;22.32;71.16;100128.63;1630198;86;27710;-80
2022/08/16 05:33:40;;;;;;;16.20;14.28;;;;;;;22.74;71.19;100128.58;1675991;83;22269;-81
2022/08/16 05:36:25;;;;;;;14.50;12.88;;;;;;;23.20;71.15;100139.16;1674191;83;21061;-81
2022/08/16 05:39:11;;;;;;;18.87;14.30;;;;;;;23.65;71.14;100134.78;1692182;83;21119;-81
2022/08/16 05:41:56;;;;;;;16.73;14.35;;;;;;;24.05;70.85;100132.94;1676679;83;21504;-81
2022/08/16 05:44:42;;;;;;;19.27;14.65;;;;;;;24.44;70.88;100140.80;1668978;83;21041;-80
2022/08/16 05:47:27;;;;;;;16.90;14.55;;;;;;;24.84;70.79;100148.95;1674069;83;21097;-80
2022/08/16 05:50:12;;;;;;;14.65;13.10;;;;;;;25.25;70.62;100146.82;1675821;83;21250;-81
2022/08/16 05:52:57;;;;;;;15.23;13.62;;;;;;;25.65;70.48;100137.64;1685065;83;21045;-81
2022/08/16 05:55:43;;;;;;;13.32;12.10;;;;;;;25.97;70.35;100112.81;1679653;83;21589;-81
2022/08/16 05:58:28;;;;;;;17.67;12.68;;;;;;;26.49;70.12;100132.03;1678137;83;21395;-81
2022/08/16 06:01:13;;;;;;;13.48;11.88;;;;;;;26.87;69.96;100135.99;1680348;83;21525;-81
2022/08/16 06:03:58;;;;;;;13.13;11.97;;;;;;;27.23;69.66;100129.59;1676865;83;21247;-81
2022/08/16 06:06:45;;;;;;;12.80;11.73;;;;;;;27.56;69.42;100129.55;1677969;83;21116;-81
2022/08/16 06:09:30;;;;;;;13.35;12.03;;;;;;;27.91;69.24;100122.23;1678241;83;21061;-81
2022/08/16 06:12:17;;;;;;;12.05;11.05;;;;;;;28.21;68.90;100121.06;1675605;83;21044;-81
2022/08/16 06:15:07;;;;;;;11.70;10.65;;;;;;;28.52;68.72;100126.41;1687774;83;21105;-81
2022/08/16 06:17:52;;;;;;;12.20;11.00;;;;;;;28.85;68.26;100130.20;1679702;83;21093;-81
2022/08/16 06:20:38;;;;;;;11.28;10.15;;;;;;;29.15;67.95;100134.23;1677233;83;21088;-82
2022/08/16 06:23:25;;;;;;;11.12;10.13;;;;;;;29.41;67.80;100134.28;1679051;83;21049;-82
2022/08/16 06:26:10;;;;;;;11.08;10.05;;;;;;;29.77;67.41;100133.61;1685751;83;21661;-81
2022/08/16 06:28:55;;;;;;;10.88;9.93;;;;;;;30.23;67.28;100137.62;1678894;83;21627;-81
2022/08/16 06:31:40;;;;;;;10.38;9.43;;;;;;;30.72;66.97;100139.05;1678861;83;21056;-81
2022/08/16 06:34:25;;;;;;;10.75;9.85;;;;;;;31.27;66.50;100139.20;1667556;83;21511;-82
2022/08/16 06:37:10;;;;;;;10.85;9.83;;;;;;;31.79;65.98;100146.75;1671107;83;21073;-82
2022/08/16 06:39:55;;;;;;;9.83;9.03;;;;;;;32.28;65.38;100148.38;1672091;83;21421;-82
2022/08/16 06:42:40;;;;;;;10.43;9.48;;;;;;;32.78;64.93;100143.35;1670535;83;21113;-81
2022/08/16 06:45:25;;;;;;;11.23;9.80;;;;;;;33.19;64.33;100156.41;1676330;83;21116;-81
2022/08/16 06:48:10;;;;;;;11.88;9.80;;;;;;;33.59;63.83;100163.20;1676016;83;21283;-81
2022/08/16 06:50:57;;;;;;;11.80;10.63;;;;;;;34.03;63.27;100163.70;1679938;83;21604;-81
2022/08/16 06:53:42;;;;;;;10.05;9.15;;;;;;;34.46;62.33;100156.56;1678356;83;21057;-81
2022/08/16 06:56:27;;;;;;;10.30;9.50;;;;;;;34.74;61.75;100167.39;1681314;83;21013;-81
2022/08/16 06:59:12;;;;;;;10.08;9.15;;;;;;;35.13;61.25;100162.88;1670889;83;21656;-81
2022/08/16 07:01:58;;;;;;;9.03;8.33;;;;;;;35.55;60.58;100161.12;1675863;83;21101;-81
2022/08/16 07:04:43;;;;;;;8.88;8.05;;;;;;;35.89;60.06;100162.45;1683002;83;22096;-81
2022/08/16 07:07:28;;;;;;;9.43;8.63;;;;;;;36.46;59.30;100165.25;1675159;83;21061;-82
2022/08/16 07:10:13;;;;;;;9.57;8.67;;;;;;;36.90;58.38;100169.29;1673258;83;21072;-81
2022/08/16 07:12:58;;;;;;;13.38;8.53;;;;;;;37.28;57.61;100167.62;1677080;83;22173;-82
2022/08/16 07:15:44;;;;;;;10.10;9.30;;;;;;;37.63;56.86;100172.73;1672848;83;21100;-81
2022/08/16 07:18:28;;;;;;;;;;;;;;;37.92;56.05;100169.56;1674945;83;21113;-81
2022/08/16 07:21:14;;;;;;;9.38;8.55;;;;;;;38.28;55.29;100164.93;1667234;83;20292;-81
2022/08/16 07:24:00;;;;;;;9.48;8.58;;;;;;;38.69;54.77;100173.11;1667845;83;21589;-81
2022/08/16 07:26:45;;;;;;;10.32;8.73;;;;;;;38.91;53.81;100164.94;1665897;83;21060;-81
2022/08/16 07:29:30;;;;;;;9.70;8.73;;;;;;;39.12;52.95;100166.42;1665040;83;21605;-81
2022/08/16 07:32:17;;;;;;;8.10;7.50;;;;;;;39.21;52.17;100166.45;1662591;83;331468;-81
2022/08/16 07:35:02;;;;;;;7.72;7.12;;;;;;;39.32;51.13;100168.95;1625389;85;21772;-81
2022/08/16 07:37:48;;;;;;;8.50;7.80;;;;;;;38.72;49.98;100175.38;1621995;86;27082;-82
2022/08/16 07:40:35;;;;;;;8.95;8.05;;;;;;;38.00;49.98;100171.16;1627156;85;21124;-81
2022/08/16 07:43:23;;;;;;;8.63;7.92;;;;;;;37.42;49.27;100174.66;1623342;85;21580;-81
2022/08/16 07:46:08;;;;;;;7.87;7.28;;;;;;;36.82;49.10;100174.88;1620697;86;21573;-81
2022/08/16 07:48:53;;;;;;;8.10;7.30;;;;;;;36.38;48.39;100178.93;1622679;85;21129;-81
2022/08/16 07:51:39;;;;;;;7.47;6.97;;;;;;;36.16;48.26;100182.23;1622898;85;21528;-81
2022/08/16 07:54:25;;;;;;;7.50;6.90;;;;;;;36.01;47.61;100178.34;1663006;83;21065;-81
2022/08/16 07:57:11;;;;;;;;;;;;;;;35.91;47.43;100178.39;1667676;83;22170;-81
2022/08/16 07:59:55;;;;;;;;;;;;;;;35.89;47.35;100177.77;1669683;83;20282;-81
2022/08/16 08:02:42;;;;;;;7.10;6.50;;;;;;;35.82;47.16;100176.41;1664577;83;20572;-81
2022/08/16 08:05:27;;;;;;;7.87;7.28;;;;;;;35.79;46.80;100171.43;1666074;83;21112;-81
2022/08/16 08:08:12;;;;;;;8.23;7.62;;;;;;;35.75;46.42;100167.45;1669113;83;21560;-81
2022/08/16 08:10:58;;;;;;;7.30;6.80;;;;;;;35.84;45.86;100168.14;1667523;83;21112;-81
2022/08/16 08:13:43;;;;;;;7.35;6.45;;;;;;;36.23;45.33;100172.84;1667475;83;21132;-81
2022/08/16 08:16:29;;;;;;;8.50;7.70;;;;;;;36.98;44.87;100169.88;1671787;83;21743;-81
2022/08/16 08:19:13;;;;;;;8.35;7.72;;;;;;;37.76;44.37;100174.08;1665232;83;21571;-80
2022/08/16 08:21:59;;;;;;;8.17;7.40;;;;;;;38.47;43.73;100182.08;1666235;83;22481;-80
2022/08/16 08:24:45;;;;;;;6.67;6.08;;;;;;;39.05;43.47;100162.95;1665800;83;21531;-80
2022/08/16 08:27:30;;;;;;;7.05;6.45;;;;;;;39.75;42.83;100182.98;1666430;83;21093;-81
2022/08/16 08:30:16;;;;;;;7.55;6.95;;;;;;;40.44;42.29;100181.72;1667260;83;21092;-80
2022/08/16 08:33:02;;;;;;;7.58;6.87;;;;;;;40.73;41.70;100177.30;1677252;83;21401;-80
2022/08/16 08:35:46;;;;;;;8.40;7.65;;;;;;;41.23;41.03;100182.65;1685332;83;21326;-81
2022/08/16 08:38:34;;;;;;;8.93;6.72;;;;;;;41.35;41.00;100187.25;1664598;83;21071;-81
2022/08/16 08:41:19;;;;;;;7.40;6.80;;;;;;;41.98;40.17;100189.47;1605740;85;21624;-81
2022/08/16 08:44:04;;;;;;;8.20;7.50;;;;;;;42.57;39.61;100189.27;1642513;84;22176;-81
2022/08/16 08:46:49;;;;;;;8.68;8.03;;;;;;;43.19;39.19;100191.36;1641666;84;21068;-81
2022/08/16 08:49:36;;;;;;;8.28;7.67;;;;;;;43.56;38.40;100201.20;1642035;85;21055;-81
2022/08/16 08:52:21;;;;;;;8.28;7.62;;;;;;;43.82;37.78;100201.00;1641602;84;21092;-81
2022/08/16 08:55:10;;;;;;;7.72;7.12;;;;;;;44.00;37.30;100203.13;1644037;85;21091;-81
2022/08/16 08:57:56;;;;;;;8.80;8.10;;;;;;;44.14;36.79;100205.23;1594897;86;21093;-81
2022/08/16 09:00:41;;;;;;;7.70;7.03;;;;;;;43.06;36.47;100199.08;1610215;86;21177;-81
2022/08/16 09:03:26;;;;;;;8.05;7.15;;;;;;;41.19;36.72;100203.70;1610340;86;21656;-81
2022/08/16 09:06:11;;;;;;;8.20;7.35;;;;;;;39.66;37.15;100202.75;1611374;86;21141;-81
2022/08/16 09:08:56;;;;;;;8.63;7.85;;;;;;;38.55;37.25;100207.46;1608563;86;21133;-81
2022/08/16 09:11:43;;;;;;;8.55;7.85;;;;;;;37.64;37.00;100214.86;1613605;86;21113;-81
2022/08/16 09:14:28;;;;;;;7.83;7.12;;;;;;;36.79;36.80;100208.45;1612293;86;21144;-81
2022/08/16 09:17:13;;;;;;;8.15;7.42;;;;;;;35.84;36.85;100209.34;1642380;85;21413;-81
2022/08/16 09:19:58;;;;;;;7.35;6.85;;;;;;;35.23;36.89;100207.73;1643018;84;21142;-81
2022/08/16 09:22:44;;;;;;;7.70;6.87;;;;;;;34.64;36.93;100207.16;1639997;85;21095;-81
2022/08/16 09:25:30;;;;;;;7.37;6.78;;;;;;;34.13;37.03;100213.89;1642155;85;21059;-81
2022/08/16 09:28:16;;;;;;;8.40;7.60;;;;;;;33.71;37.08;100219.90;1641963;84;21166;-80
2022/08/16 09:31:01;;;;;;;8.15;7.45;;;;;;;33.32;37.16;100218.26;1641288;84;21138;-80
2022/08/16 09:33:46;;;;;;;8.08;7.47;;;;;;;33.00;37.25;100219.36;1644897;84;21124;-80
2022/08/16 09:36:31;;;;;;;8.70;8.00;;;;;;;32.56;37.28;100215.96;1645922;84;21646;-80
2022/08/16 09:39:17;;;;;;;7.77;7.07;;;;;;;32.18;37.54;100221.66;1658658;84;21116;-80
2022/08/16 09:42:03;;;;;;;8.50;7.22;;;;;;;31.69;37.59;100217.00;1660520;84;21101;-81
2022/08/16 09:44:47;;;;;;;;;;;;;;;31.48;37.88;100214.83;1661769;84;21089;-81
2022/08/16 09:47:36;;;;;;;9.85;7.20;;;;;;;31.27;38.18;100214.01;1658478;84;20243;-80
2022/08/16 09:50:21;;;;;;;7.85;7.25;;;;;;;31.12;38.13;100209.00;1616097;86;21603;-80
2022/08/16 09:53:12;;;;;;;6.97;6.47;;;;;;;31.00;38.30;100211.66;1658618;84;21072;-81
2022/08/16 09:55:57;;;;;;;6.83;6.37;;;;;;;30.84;38.36;100211.14;1657050;84;21655;-81
2022/08/16 09:58:42;;;;;;;8.58;7.75;;;;;;;30.73;38.50;100207.45;1658292;84;21101;-80
2022/08/16 10:01:27;;;;;;;7.70;6.97;;;;;;;30.62;38.62;100214.47;1659381;84;22246;-80
2022/08/16 10:04:12;;;;;;;8.00;7.22;;;;;;;30.45;38.75;100208.72;1620156;86;21413;-81
2022/08/16 10:06:57;;;;;;;7.95;7.15;;;;;;;30.36;38.98;100205.19;1658685;84;21430;-81
2022/08/16 10:09:44;;;;;;;8.27;7.57;;;;;;;30.34;39.23;100208.52;1659032;84;21704;-81
2022/08/16 10:15:35;;;;;;;7.70;6.92;;;;;;;30.29;39.69;100215.67;1659898;84;22295;-80
2022/08/16 10:18:21;;;;;;;7.80;7.10;;;;;;;30.32;39.90;100209.67;1659073;84;22365;-80
2022/08/16 10:21:06;;;;;;;7.67;6.97;;;;;;;30.33;40.10;100209.52;1658510;84;21060;-80
2022/08/16 10:23:53;;;;;;;10.30;6.92;;;;;;;30.32;40.23;100212.34;1659039;84;21069;-80
2022/08/16 10:26:38;;;;;;;7.78;6.80;;;;;;;30.29;40.41;100210.33;1614184;86;21541;-81
2022/08/16 10:29:23;;;;;;;7.62;6.83;;;;;;;30.25;40.59;100208.98;1616437;86;21646;-80
2022/08/16 10:32:08;;;;;;;8.20;6.87;;;;;;;30.27;40.82;100210.16;1658873;84;21050;-81
2022/08/16 10:34:53;;;;;;;9.48;6.97;;;;;;;30.33;40.99;100210.01;1651538;84;21049;-80
2022/08/16 10:37:38;;;;;;;7.15;6.42;;;;;;;30.40;41.11;100203.03;1650683;84;21111;-80
2022/08/16 10:40:23;;;;;;;7.25;6.65;;;;;;;30.42;41.22;100201.88;1674003;83;21036;-80
2022/08/16 10:43:08;;;;;;;7.83;6.87;;;;;;;30.44;41.36;100201.21;1652118;84;21102;-80
2022/08/16 10:45:53;;;;;;;8.00;5.95;;;;;;;30.43;41.41;100207.55;1652391;84;21550;-80
2022/08/16 10:48:42;;;;;;;7.17;6.35;;;;;;;30.40;41.54;100208.37;1652633;84;21097;-80
2022/08/16 10:51:28;;;;;;;7.22;6.53;;;;;;;30.39;41.59;100208.87;1650126;84;21051;-81
2022/08/16 10:54:13;;;;;;;8.35;6.03;;;;;;;30.36;41.62;100213.19;1663017;83;21063;-81
2022/08/16 10:57:00;;;;;;;7.67;6.05;;;;;;;30.37;41.70;100214.03;1644006;85;21072;-81
2022/08/16 10:59:45;;;;;;;8.70;6.33;;;;;;;30.36;41.71;100215.86;1644794;85;21089;-81
2022/08/16 11:02:30;;;;;;;5.55;5.20;;;;;;;30.41;41.75;100213.54;1643786;85;21027;-80
2022/08/16 11:05:16;;;;;;;5.75;5.20;;;;;;;30.42;41.71;100211.20;1644143;85;21567;-80
2022/08/16 11:08:03;;;;;;;6.05;5.12;;;;;;;30.42;41.60;100205.03;1648081;83;21094;-81
2022/08/16 11:10:49;;;;;;;6.47;5.90;;;;;;;30.42;41.52;100211.20;1645265;85;21105;-81
2022/08/16 11:13:34;;;;;;;7.37;6.58;;;;;;;30.45;41.55;100208.22;1642642;85;21057;-80
2022/08/16 11:16:20;;;;;;;7.87;5.55;;;;;;;30.37;41.53;100206.02;1633638;85;21195;-81
2022/08/16 11:19:05;;;;;;;5.15;4.75;;;;;;;30.35;41.65;100210.19;1642952;85;21045;-81
2022/08/16 11:21:50;;;;;;;5.58;5.08;;;;;;;30.39;41.70;100208.03;1643589;85;21033;-80
2022/08/16 11:24:39;;;;;;;5.25;4.85;;;;;;;30.44;41.74;100209.22;1643947;85;21073;-81
2022/08/16 11:27:25;;;;;;;5.47;4.97;;;;;;;30.52;41.76;100214.58;1643630;85;21057;-80
2022/08/16 11:30:13;;;;;;;4.65;4.35;;;;;;;30.56;41.67;100213.75;1635686;85;21100;-80
2022/08/16 11:33:00;;;;;;;5.47;4.97;;;;;;;30.53;41.66;100207.41;1630577;85;376403;-80
2022/08/16 11:35:45;;;;;;;5.03;4.62;;;;;;;30.48;41.68;100209.23;1623980;86;21100;-80
2022/08/16 11:38:30;;;;;;;5.80;5.40;;;;;;;30.43;41.63;100204.04;1619269;85;21626;-80
2022/08/16 11:41:15;;;;;;;5.97;5.17;;;;;;;30.37;41.64;100206.02;1620950;86;21568;-80
2022/08/16 11:44:00;;;;;;;5.67;5.17;;;;;;;30.38;41.66;100201.02;1622059;86;21081;-80
2022/08/16 11:46:45;;;;;;;5.47;4.72;;;;;;;30.36;41.64;100195.84;1622254;85;21128;-80
2022/08/16 11:49:30;;;;;;;4.90;4.60;;;;;;;30.37;41.63;100193.52;1620997;86;21310;-80
2022/08/16 11:52:16;;;;;;;7.05;4.83;;;;;;;30.35;41.49;100195.51;1620443;86;22409;-80
2022/08/16 11:55:05;;;;;;;4.92;4.53;;;;;;;30.36;41.34;100186.52;1622677;86;21140;-80
2022/08/16 11:57:50;;;;;;;5.53;5.05;;;;;;;30.38;41.30;100186.34;1619656;86;21092;-80
2022/08/16 12:00:39;;;;;;;5.00;4.58;;;;;;;30.37;41.24;100184.67;1620430;86;21359;-80
2022/08/16 12:03:27;;;;;;;4.92;4.53;;;;;;;30.39;41.23;100180.85;1620765;86;21148;-80
2022/08/16 12:06:17;;;;;;;5.03;4.62;;;;;;;30.42;41.18;100175.69;1620879;86;37471;-80
2022/08/16 12:09:05;;;;;;;5.25;4.85;;;;;;;30.37;41.04;100172.17;1620228;86;21697;-81
2022/08/16 12:11:50;;;;;;;4.97;4.58;;;;;;;30.39;41.10;100168.84;1620658;85;21125;-81
2022/08/16 12:14:35;;;;;;;5.60;4.53;;;;;;;30.40;41.04;100169.18;1618941;86;21132;-81
2022/08/16 12:17:21;;;;;;;6.07;4.83;;;;;;;30.41;41.01;100162.84;1620686;85;21545;-80
2022/08/16 12:20:12;;;;;;;5.58;4.97;;;;;;;30.43;41.03;100157.34;1621368;86;26960;-80
2022/08/16 12:22:57;;;;;;;5.25;4.85;;;;;;;30.50;41.04;100165.87;1622712;85;21455;-80
2022/08/16 12:25:43;;;;;;;5.62;5.03;;;;;;;30.57;40.94;100162.91;1623099;86;21381;-80
2022/08/16 12:28:28;;;;;;;5.57;5.17;;;;;;;30.57;40.87;100162.91;1625268;86;20962;-80
2022/08/16 12:31:13;;;;;;;6.03;4.60;;;;;;;30.56;40.81;100163.05;1622631;86;22122;-80
2022/08/16 12:33:58;;;;;;;4.35;4.05;;;;;;;30.50;40.71;100168.54;1629270;85;20955;-81
2022/08/16 12:36:42;;;;;;;4.53;4.03;;;;;;;30.49;40.75;100165.53;1634879;85;21498;-80
2022/08/16 12:39:28;;;;;;;5.00;4.60;;;;;;;30.55;40.70;100170.72;1634813;85;20954;-80
2022/08/16 12:42:12;;;;;;;8.63;4.70;;;;;;;30.58;40.63;100171.25;1635044;85;20962;-80
2022/08/16 12:44:57;;;;;;;4.28;3.98;;;;;;;30.56;40.55;100169.72;1635400;85;21882;-80
2022/08/16 12:50:46;;;;;;;5.10;4.60;;;;;;;30.56;40.44;100171.89;1635107;85;20914;-80
2022/08/16 12:53:34;;;;;;;4.58;4.17;;;;;;;30.57;40.31;100162.08;1634561;85;20950;-80
2022/08/16 12:56:19;;;;;;;;;;;;;;;30.54;40.32;100162.37;1635050;85;21086;-80